sensor_id;sensor_type;location;lat;lon;timestamp;P1;durP1;ratioP1;P2;durP2;ratioP2
73331;SDS011;61560;33.718;73.040;2022-10-13T00:01:17;16.15;;;7.68;;
73331;SDS011;61560;33.718;73.040;2022-10-13T00:03:46;17.38;;;8.27;;
73331;SDS011;61560;33.718;73.040;2022-10-13T00:06:19;15.20;;;7.18;;
73331;SDS011;61560;33.718;73.040;2022-10-13T00:11:18;17.38;;;7.40;;
73331;SDS011;61560;33.718;73.040;2022-10-13T00:16:17;15.48;;;7.47;;
73331;SDS011;61560;33.718;73.040;2022-10-13T00:18:46;14.13;;;7.80;;
73331;SDS011;61560;33.718;73.040;2022-10-13T00:21:14;16.52;;;7.93;;
73331;SDS011;61560;33.718;73.040;2022-10-13T00:23:47;14.95;;;7.75;;
73331;SDS011;61560;33.718;73.040;2022-10-13T00:26:18;12.32;;;7.20;;
73331;SDS011;61560;33.718;73.040;2022-10-13T00:28:46;15.50;;;7.75;;
73331;SDS011;61560;33.718;73.040;2022-10-13T00:31:14;15.70;;;7.43;;
73331;SDS011;61560;33.718;73.040;2022-10-13T00:33:45;20.45;;;7.82;;
73331;SDS011;61560;33.718;73.040;2022-10-13T00:36:11;16.98;;;8.55;;
73331;SDS011;61560;33.718;73.040;2022-10-13T00:38:38;17.60;;;7.45;;
73331;SDS011;61560;33.718;73.040;2022-10-13T00:41:04;11.85;;;7.15;;
73331;SDS011;61560;33.718;73.040;2022-10-13T00:43:52;15.90;;;8.00;;
73331;SDS011;61560;33.718;73.040;2022-10-13T00:46:20;15.65;;;7.88;;
73331;SDS011;61560;33.718;73.040;2022-10-13T00:48:55;16.45;;;8.45;;
73331;SDS011;61560;33.718;73.040;2022-10-13T00:51:28;23.23;;;8.35;;
73331;SDS011;61560;33.718;73.040;2022-10-13T00:53:58;13.75;;;7.72;;
73331;SDS011;61560;33.718;73.040;2022-10-13T00:56:26;17.17;;;8.57;;
73331;SDS011;61560;33.718;73.040;2022-10-13T00:58:54;17.50;;;9.18;;
73331;SDS011;61560;33.718;73.040;2022-10-13T01:01:22;18.67;;;8.77;;
73331;SDS011;61560;33.718;73.040;2022-10-13T01:03:49;17.15;;;8.18;;
73331;SDS011;61560;33.718;73.040;2022-10-13T01:06:15;15.05;;;7.57;;
73331;SDS011;61560;33.718;73.040;2022-10-13T01:08:44;15.93;;;7.90;;
73331;SDS011;61560;33.718;73.040;2022-10-13T01:11:57;18.15;;;8.60;;
73331;SDS011;61560;33.718;73.040;2022-10-13T01:25:09;18.73;;;8.63;;
73331;SDS011;61560;33.718;73.040;2022-10-13T01:36:52;21.40;;;8.88;;
73331;SDS011;61560;33.718;73.040;2022-10-13T01:42:07;19.30;;;9.60;;
73331;SDS011;61560;33.718;73.040;2022-10-13T01:44:44;22.27;;;9.93;;
73331;SDS011;61560;33.718;73.040;2022-10-13T01:47:15;18.08;;;9.05;;
73331;SDS011;61560;33.718;73.040;2022-10-13T01:49:44;23.58;;;9.88;;
73331;SDS011;61560;33.718;73.040;2022-10-13T01:52:15;21.20;;;9.95;;
73331;SDS011;61560;33.718;73.040;2022-10-13T01:54:52;22.55;;;10.52;;
73331;SDS011;61560;33.718;73.040;2022-10-13T01:57:29;25.60;;;11.52;;
73331;SDS011;61560;33.718;73.040;2022-10-13T01:59:59;18.92;;;9.52;;
73331;SDS011;61560;33.718;73.040;2022-10-13T02:03:25;25.80;;;10.20;;
73331;SDS011;61560;33.718;73.040;2022-10-13T02:11:23;31.83;;;12.00;;
73331;SDS011;61560;33.718;73.040;2022-10-13T02:14:04;31.33;;;11.35;;
73331;SDS011;61560;33.718;73.040;2022-10-13T02:16:42;29.52;;;12.27;;
73331;SDS011;61560;33.718;73.040;2022-10-13T02:19:12;24.55;;;13.18;;
73331;SDS011;61560;33.718;73.040;2022-10-13T02:21:43;25.48;;;12.65;;
73331;SDS011;61560;33.718;73.040;2022-10-13T02:24:10;29.17;;;13.35;;
73331;SDS011;61560;33.718;73.040;2022-10-13T02:26:39;34.80;;;15.82;;
73331;SDS011;61560;33.718;73.040;2022-10-13T02:29:10;31.38;;;14.82;;
73331;SDS011;61560;33.718;73.040;2022-10-13T02:31:40;31.35;;;15.30;;
73331;SDS011;61560;33.718;73.040;2022-10-13T02:34:07;35.92;;;15.35;;
73331;SDS011;61560;33.718;73.040;2022-10-13T02:36:34;29.63;;;15.38;;
73331;SDS011;61560;33.718;73.040;2022-10-13T02:39:08;28.45;;;13.38;;
73331;SDS011;61560;33.718;73.040;2022-10-13T02:41:36;31.23;;;14.20;;
73331;SDS011;61560;33.718;73.040;2022-10-13T02:44:03;27.33;;;13.75;;
73331;SDS011;61560;33.718;73.040;2022-10-13T02:46:39;35.58;;;14.43;;
73331;SDS011;61560;33.718;73.040;2022-10-13T02:49:08;35.83;;;13.73;;
73331;SDS011;61560;33.718;73.040;2022-10-13T02:51:35;37.50;;;14.70;;
73331;SDS011;61560;33.718;73.040;2022-10-13T02:54:03;29.92;;;14.40;;
73331;SDS011;61560;33.718;73.040;2022-10-13T02:56:29;35.30;;;15.82;;
73331;SDS011;61560;33.718;73.040;2022-10-13T02:58:56;29.98;;;15.77;;
73331;SDS011;61560;33.718;73.040;2022-10-13T03:01:22;33.80;;;17.08;;
73331;SDS011;61560;33.718;73.040;2022-10-13T03:03:49;32.63;;;16.75;;
73331;SDS011;61560;33.718;73.040;2022-10-13T03:06:15;34.20;;;16.15;;
73331;SDS011;61560;33.718;73.040;2022-10-13T03:08:43;25.58;;;14.88;;
73331;SDS011;61560;33.718;73.040;2022-10-13T03:11:10;33.17;;;15.48;;
73331;SDS011;61560;33.718;73.040;2022-10-13T03:13:38;25.25;;;14.40;;
73331;SDS011;61560;33.718;73.040;2022-10-13T03:16:05;25.90;;;14.35;;
73331;SDS011;61560;33.718;73.040;2022-10-13T03:18:32;24.20;;;14.20;;
73331;SDS011;61560;33.718;73.040;2022-10-13T03:21:00;25.15;;;13.27;;
73331;SDS011;61560;33.718;73.040;2022-10-13T03:23:30;22.33;;;13.63;;
73331;SDS011;61560;33.718;73.040;2022-10-13T03:25:57;25.35;;;13.68;;
73331;SDS011;61560;33.718;73.040;2022-10-13T03:28:26;27.17;;;13.95;;
73331;SDS011;61560;33.718;73.040;2022-10-13T03:31:02;24.83;;;14.52;;
73331;SDS011;61560;33.718;73.040;2022-10-13T03:33:31;30.27;;;14.00;;
73331;SDS011;61560;33.718;73.040;2022-10-13T03:35:58;20.75;;;14.82;;
73331;SDS011;61560;33.718;73.040;2022-10-13T03:38:27;28.45;;;14.73;;
73331;SDS011;61560;33.718;73.040;2022-10-13T03:41:02;28.80;;;15.52;;
73331;SDS011;61560;33.718;73.040;2022-10-13T03:43:37;29.88;;;16.75;;
73331;SDS011;61560;33.718;73.040;2022-10-13T03:46:05;25.60;;;15.52;;
73331;SDS011;61560;33.718;73.040;2022-10-13T03:48:37;29.92;;;15.80;;
73331;SDS011;61560;33.718;73.040;2022-10-13T03:51:07;31.52;;;16.20;;
73331;SDS011;61560;33.718;73.040;2022-10-13T03:53:43;26.65;;;15.43;;
73331;SDS011;61560;33.718;73.040;2022-10-13T03:56:21;29.67;;;15.77;;
73331;SDS011;61560;33.718;73.040;2022-10-13T03:58:51;24.05;;;15.15;;
73331;SDS011;61560;33.718;73.040;2022-10-13T04:01:20;38.25;;;19.83;;
73331;SDS011;61560;33.718;73.040;2022-10-13T04:03:48;30.98;;;18.10;;
73331;SDS011;61560;33.718;73.040;2022-10-13T04:06:17;28.30;;;16.38;;
73331;SDS011;61560;33.718;73.040;2022-10-13T04:08:43;25.65;;;16.20;;
73331;SDS011;61560;33.718;73.040;2022-10-13T04:11:11;24.77;;;15.40;;
73331;SDS011;61560;33.718;73.040;2022-10-13T04:13:40;25.83;;;15.70;;
73331;SDS011;61560;33.718;73.040;2022-10-13T04:19:05;22.10;;;15.55;;
73331;SDS011;61560;33.718;73.040;2022-10-13T04:21:32;23.52;;;14.50;;
73331;SDS011;61560;33.718;73.040;2022-10-13T04:24:00;25.42;;;15.40;;
73331;SDS011;61560;33.718;73.040;2022-10-13T04:26:28;23.02;;;14.65;;
73331;SDS011;61560;33.718;73.040;2022-10-13T04:28:57;27.60;;;14.93;;
73331;SDS011;61560;33.718;73.040;2022-10-13T04:31:24;25.02;;;14.60;;
73331;SDS011;61560;33.718;73.040;2022-10-13T04:33:53;25.75;;;14.98;;
73331;SDS011;61560;33.718;73.040;2022-10-13T04:36:22;21.00;;;13.88;;
73331;SDS011;61560;33.718;73.040;2022-10-13T04:38:50;23.58;;;15.13;;
73331;SDS011;61560;33.718;73.040;2022-10-13T04:41:18;22.13;;;15.25;;
73331;SDS011;61560;33.718;73.040;2022-10-13T04:43:47;24.20;;;14.63;;
73331;SDS011;61560;33.718;73.040;2022-10-13T04:46:15;26.38;;;15.82;;
73331;SDS011;61560;33.718;73.040;2022-10-13T04:48:45;22.27;;;15.25;;
73331;SDS011;61560;33.718;73.040;2022-10-13T04:51:13;25.75;;;17.25;;
73331;SDS011;61560;33.718;73.040;2022-10-13T04:53:41;25.90;;;17.27;;
73331;SDS011;61560;33.718;73.040;2022-10-13T04:56:11;27.88;;;17.00;;
73331;SDS011;61560;33.718;73.040;2022-10-13T04:58:41;34.72;;;19.80;;
73331;SDS011;61560;33.718;73.040;2022-10-13T05:01:13;30.95;;;18.33;;
73331;SDS011;61560;33.718;73.040;2022-10-13T05:03:43;29.13;;;18.63;;
73331;SDS011;61560;33.718;73.040;2022-10-13T05:06:13;33.58;;;20.50;;
73331;SDS011;61560;33.718;73.040;2022-10-13T05:08:44;34.50;;;20.60;;
73331;SDS011;61560;33.718;73.040;2022-10-13T05:11:14;33.55;;;21.40;;
73331;SDS011;61560;33.718;73.040;2022-10-13T05:13:42;35.25;;;21.80;;
73331;SDS011;61560;33.718;73.040;2022-10-13T05:16:09;49.50;;;26.15;;
73331;SDS011;61560;33.718;73.040;2022-10-13T05:18:38;45.37;;;30.47;;
73331;SDS011;61560;33.718;73.040;2022-10-13T05:21:06;47.55;;;31.23;;
73331;SDS011;61560;33.718;73.040;2022-10-13T05:23:36;47.25;;;31.48;;
73331;SDS011;61560;33.718;73.040;2022-10-13T05:26:04;50.28;;;30.38;;
73331;SDS011;61560;33.718;73.040;2022-10-13T05:28:32;44.47;;;28.65;;
73331;SDS011;61560;33.718;73.040;2022-10-13T05:31:13;40.20;;;25.80;;
73331;SDS011;61560;33.718;73.040;2022-10-13T05:33:42;42.50;;;26.65;;
73331;SDS011;61560;33.718;73.040;2022-10-13T05:36:13;43.83;;;27.27;;
73331;SDS011;61560;33.718;73.040;2022-10-13T05:38:41;40.80;;;26.33;;
73331;SDS011;61560;33.718;73.040;2022-10-13T05:41:08;40.63;;;25.92;;
73331;SDS011;61560;33.718;73.040;2022-10-13T05:43:40;49.88;;;28.20;;
73331;SDS011;61560;33.718;73.040;2022-10-13T05:46:07;48.20;;;29.65;;
73331;SDS011;61560;33.718;73.040;2022-10-13T05:48:35;44.08;;;27.05;;
73331;SDS011;61560;33.718;73.040;2022-10-13T05:51:02;48.17;;;27.05;;
73331;SDS011;61560;33.718;73.040;2022-10-13T05:53:38;50.95;;;28.98;;
73331;SDS011;61560;33.718;73.040;2022-10-13T05:56:10;55.13;;;28.00;;
73331;SDS011;61560;33.718;73.040;2022-10-13T06:01:16;46.78;;;23.38;;
73331;SDS011;61560;33.718;73.040;2022-10-13T06:03:48;38.00;;;22.85;;
73331;SDS011;61560;33.718;73.040;2022-10-13T06:06:17;45.67;;;23.48;;
73331;SDS011;61560;33.718;73.040;2022-10-13T06:08:44;44.80;;;21.67;;
73331;SDS011;61560;33.718;73.040;2022-10-13T06:11:14;44.75;;;19.30;;
73331;SDS011;61560;33.718;73.040;2022-10-13T06:13:40;32.17;;;19.98;;
73331;SDS011;61560;33.718;73.040;2022-10-13T06:16:07;35.33;;;18.58;;
73331;SDS011;61560;33.718;73.040;2022-10-13T06:18:33;34.72;;;17.15;;
73331;SDS011;61560;33.718;73.040;2022-10-13T06:21:01;26.88;;;16.42;;
73331;SDS011;61560;33.718;73.040;2022-10-13T06:23:28;32.90;;;15.50;;
73331;SDS011;61560;33.718;73.040;2022-10-13T06:25:54;34.42;;;14.60;;
73331;SDS011;61560;33.718;73.040;2022-10-13T06:28:21;31.48;;;14.88;;
73331;SDS011;61560;33.718;73.040;2022-10-13T06:30:48;27.88;;;15.13;;
73331;SDS011;61560;33.718;73.040;2022-10-13T06:33:23;24.98;;;15.30;;
73331;SDS011;61560;33.718;73.040;2022-10-13T06:35:50;29.80;;;16.70;;
73331;SDS011;61560;33.718;73.040;2022-10-13T06:38:19;31.77;;;14.68;;
73331;SDS011;61560;33.718;73.040;2022-10-13T06:40:46;23.58;;;13.30;;
73331;SDS011;61560;33.718;73.040;2022-10-13T06:43:13;21.10;;;13.18;;
73331;SDS011;61560;33.718;73.040;2022-10-13T06:45:40;19.38;;;12.43;;
73331;SDS011;61560;33.718;73.040;2022-10-13T06:48:08;23.08;;;12.23;;
73331;SDS011;61560;33.718;73.040;2022-10-13T06:50:35;23.25;;;12.52;;
73331;SDS011;61560;33.718;73.040;2022-10-13T06:53:01;23.00;;;11.50;;
73331;SDS011;61560;33.718;73.040;2022-10-13T06:55:28;18.75;;;10.82;;
73331;SDS011;61560;33.718;73.040;2022-10-13T06:57:54;19.90;;;11.13;;
73331;SDS011;61560;33.718;73.040;2022-10-13T07:00:21;19.35;;;10.57;;
73331;SDS011;61560;33.718;73.040;2022-10-13T07:02:50;15.45;;;10.15;;
73331;SDS011;61560;33.718;73.040;2022-10-13T07:05:17;16.80;;;10.27;;
73331;SDS011;61560;33.718;73.040;2022-10-13T07:07:43;16.60;;;10.18;;
73331;SDS011;61560;33.718;73.040;2022-10-13T07:10:10;15.10;;;9.57;;
73331;SDS011;61560;33.718;73.040;2022-10-13T07:12:37;17.17;;;9.38;;
73331;SDS011;61560;33.718;73.040;2022-10-13T07:15:03;18.25;;;9.73;;
73331;SDS011;61560;33.718;73.040;2022-10-13T07:17:30;17.70;;;9.77;;
73331;SDS011;61560;33.718;73.040;2022-10-13T07:19:56;18.98;;;10.15;;
73331;SDS011;61560;33.718;73.040;2022-10-13T07:22:23;17.63;;;10.30;;
73331;SDS011;61560;33.718;73.040;2022-10-13T07:24:50;20.95;;;9.80;;
73331;SDS011;61560;33.718;73.040;2022-10-13T07:27:20;18.83;;;10.43;;
73331;SDS011;61560;33.718;73.040;2022-10-13T07:29:47;18.02;;;9.95;;
73331;SDS011;61560;33.718;73.040;2022-10-13T07:32:14;16.08;;;9.48;;
73331;SDS011;61560;33.718;73.040;2022-10-13T07:34:40;16.00;;;9.65;;
73331;SDS011;61560;33.718;73.040;2022-10-13T07:37:07;17.35;;;10.43;;
73331;SDS011;61560;33.718;73.040;2022-10-13T07:39:34;16.80;;;10.63;;
73331;SDS011;61560;33.718;73.040;2022-10-13T07:42:00;16.30;;;10.18;;
73331;SDS011;61560;33.718;73.040;2022-10-13T07:44:27;16.50;;;9.68;;
73331;SDS011;61560;33.718;73.040;2022-10-13T07:46:55;16.25;;;10.35;;
73331;SDS011;61560;33.718;73.040;2022-10-13T07:49:21;16.70;;;10.90;;
73331;SDS011;61560;33.718;73.040;2022-10-13T07:51:48;21.70;;;11.25;;
73331;SDS011;61560;33.718;73.040;2022-10-13T07:54:17;20.02;;;10.45;;
73331;SDS011;61560;33.718;73.040;2022-10-13T07:56:49;18.58;;;11.98;;
73331;SDS011;61560;33.718;73.040;2022-10-13T07:59:17;15.30;;;10.05;;
73331;SDS011;61560;33.718;73.040;2022-10-13T08:01:43;17.60;;;10.70;;
73331;SDS011;61560;33.718;73.040;2022-10-13T08:04:10;17.67;;;10.32;;
73331;SDS011;61560;33.718;73.040;2022-10-13T08:06:37;19.33;;;11.07;;
73331;SDS011;61560;33.718;73.040;2022-10-13T08:09:07;19.40;;;11.13;;
73331;SDS011;61560;33.718;73.040;2022-10-13T08:11:34;19.45;;;10.80;;
73331;SDS011;61560;33.718;73.040;2022-10-13T08:14:01;17.15;;;10.25;;
73331;SDS011;61560;33.718;73.040;2022-10-13T08:16:30;17.80;;;11.27;;
73331;SDS011;61560;33.718;73.040;2022-10-13T08:18:57;15.90;;;9.93;;
73331;SDS011;61560;33.718;73.040;2022-10-13T08:21:25;18.55;;;10.85;;
73331;SDS011;61560;33.718;73.040;2022-10-13T08:23:53;23.58;;;11.63;;
73331;SDS011;61560;33.718;73.040;2022-10-13T08:26:24;18.90;;;11.02;;
73331;SDS011;61560;33.718;73.040;2022-10-13T08:28:52;19.52;;;10.93;;
73331;SDS011;61560;33.718;73.040;2022-10-13T08:31:19;23.35;;;11.27;;
73331;SDS011;61560;33.718;73.040;2022-10-13T08:33:46;20.80;;;12.00;;
73331;SDS011;61560;33.718;73.040;2022-10-13T08:36:14;18.60;;;11.50;;
73331;SDS011;61560;33.718;73.040;2022-10-13T08:38:42;27.40;;;12.27;;
73331;SDS011;61560;33.718;73.040;2022-10-13T08:44:04;23.63;;;12.50;;
73331;SDS011;61560;33.718;73.040;2022-10-13T08:49:28;21.50;;;11.25;;
73331;SDS011;61560;33.718;73.040;2022-10-13T08:51:55;19.55;;;11.75;;
73331;SDS011;61560;33.718;73.040;2022-10-13T08:54:24;19.85;;;11.70;;
73331;SDS011;61560;33.718;73.040;2022-10-13T08:56:51;19.67;;;10.77;;
73331;SDS011;61560;33.718;73.040;2022-10-13T08:59:19;19.80;;;11.25;;
73331;SDS011;61560;33.718;73.040;2022-10-13T09:01:46;19.88;;;12.15;;
73331;SDS011;61560;33.718;73.040;2022-10-13T09:04:26;22.63;;;11.75;;
73331;SDS011;61560;33.718;73.040;2022-10-13T09:09:35;19.33;;;11.48;;
73331;SDS011;61560;33.718;73.040;2022-10-13T09:12:03;22.02;;;11.77;;
73331;SDS011;61560;33.718;73.040;2022-10-13T09:14:32;20.88;;;11.55;;
73331;SDS011;61560;33.718;73.040;2022-10-13T09:17:20;23.45;;;11.27;;
73331;SDS011;61560;33.718;73.040;2022-10-13T09:20:05;19.10;;;11.65;;
73331;SDS011;61560;33.718;73.040;2022-10-13T09:22:40;19.33;;;11.88;;
73331;SDS011;61560;33.718;73.040;2022-10-13T09:25:16;18.25;;;11.75;;
73331;SDS011;61560;33.718;73.040;2022-10-13T09:27:52;22.23;;;12.57;;
73331;SDS011;61560;33.718;73.040;2022-10-13T09:30:40;17.58;;;11.07;;
73331;SDS011;61560;33.718;73.040;2022-10-13T09:35:44;22.45;;;11.57;;
73331;SDS011;61560;33.718;73.040;2022-10-13T09:38:33;24.20;;;11.45;;
73331;SDS011;61560;33.718;73.040;2022-10-13T09:46:24;21.80;;;12.18;;
73331;SDS011;61560;33.718;73.040;2022-10-13T09:48:52;21.95;;;10.93;;
73331;SDS011;61560;33.718;73.040;2022-10-13T09:51:37;20.38;;;11.77;;
73331;SDS011;61560;33.718;73.040;2022-10-13T09:57:48;20.55;;;11.95;;
73331;SDS011;61560;33.718;73.040;2022-10-13T10:07:59;22.50;;;12.75;;
73331;SDS011;61560;33.718;73.040;2022-10-13T10:10:39;23.58;;;12.40;;
73331;SDS011;61560;33.718;73.040;2022-10-13T10:13:10;20.98;;;11.88;;
73331;SDS011;61560;33.718;73.040;2022-10-13T10:23:56;21.70;;;12.05;;
73331;SDS011;61560;33.718;73.040;2022-10-13T10:26:53;17.63;;;10.95;;
73331;SDS011;61560;33.718;73.040;2022-10-13T10:29:48;21.33;;;11.90;;
73331;SDS011;61560;33.718;73.040;2022-10-13T10:45:47;24.27;;;12.45;;
73331;SDS011;61560;33.718;73.040;2022-10-13T10:48:21;27.13;;;14.00;;
73331;SDS011;61560;33.718;73.040;2022-10-13T10:50:50;23.52;;;12.13;;
73331;SDS011;61560;33.718;73.040;2022-10-13T10:56:38;24.92;;;12.18;;
73331;SDS011;61560;33.718;73.040;2022-10-13T10:59:21;30.00;;;12.80;;
73331;SDS011;61560;33.718;73.040;2022-10-13T11:05:04;19.08;;;11.73;;
73331;SDS011;61560;33.718;73.040;2022-10-13T11:12:24;27.73;;;13.50;;
73331;SDS011;61560;33.718;73.040;2022-10-13T11:15:13;21.75;;;12.48;;
73331;SDS011;61560;33.718;73.040;2022-10-13T11:17:42;25.10;;;12.60;;
73331;SDS011;61560;33.718;73.040;2022-10-13T11:25:39;22.75;;;13.20;;
73331;SDS011;61560;33.718;73.040;2022-10-13T11:30:51;27.92;;;13.27;;
73331;SDS011;61560;33.718;73.040;2022-10-13T11:55:48;23.27;;;11.93;;
73331;SDS011;61560;33.718;73.040;2022-10-13T11:58:20;24.48;;;12.65;;
73331;SDS011;61560;33.718;73.040;2022-10-13T12:00:59;25.08;;;13.48;;
73331;SDS011;61560;33.718;73.040;2022-10-13T13:03:17;25.35;;;13.07;;
73331;SDS011;61560;33.718;73.040;2022-10-13T13:05:48;25.45;;;11.18;;
73331;SDS011;61560;33.718;73.040;2022-10-13T13:08:23;24.75;;;11.73;;
73331;SDS011;61560;33.718;73.040;2022-10-13T13:11:02;25.65;;;12.68;;
73331;SDS011;61560;33.718;73.040;2022-10-13T13:13:33;24.85;;;11.32;;
73331;SDS011;61560;33.718;73.040;2022-10-13T13:16:17;23.83;;;12.05;;
73331;SDS011;61560;33.718;73.040;2022-10-13T13:18:46;25.10;;;12.15;;
73331;SDS011;61560;33.718;73.040;2022-10-13T13:21:15;23.35;;;12.77;;
73331;SDS011;61560;33.718;73.040;2022-10-13T13:23:44;24.88;;;11.95;;
73331;SDS011;61560;33.718;73.040;2022-10-13T13:26:16;24.67;;;12.43;;
73331;SDS011;61560;33.718;73.040;2022-10-13T13:28:46;26.67;;;11.50;;
73331;SDS011;61560;33.718;73.040;2022-10-13T13:31:19;28.80;;;13.27;;
73331;SDS011;61560;33.718;73.040;2022-10-13T13:33:47;27.92;;;13.00;;
73331;SDS011;61560;33.718;73.040;2022-10-13T13:38:50;29.95;;;13.93;;
73331;SDS011;61560;33.718;73.040;2022-10-13T13:41:18;22.98;;;12.85;;
73331;SDS011;61560;33.718;73.040;2022-10-13T13:43:45;25.45;;;12.98;;
73331;SDS011;61560;33.718;73.040;2022-10-13T13:46:16;27.52;;;13.18;;
73331;SDS011;61560;33.718;73.040;2022-10-13T13:48:45;25.42;;;13.57;;
73331;SDS011;61560;33.718;73.040;2022-10-13T13:51:12;37.85;;;17.88;;
73331;SDS011;61560;33.718;73.040;2022-10-13T13:53:39;44.60;;;21.40;;
73331;SDS011;61560;33.718;73.040;2022-10-13T13:56:13;54.47;;;24.80;;
73331;SDS011;61560;33.718;73.040;2022-10-13T13:58:41;53.17;;;25.48;;
73331;SDS011;61560;33.718;73.040;2022-10-13T14:01:08;57.40;;;24.35;;
73331;SDS011;61560;33.718;73.040;2022-10-13T14:03:35;49.58;;;21.70;;
73331;SDS011;61560;33.718;73.040;2022-10-13T14:06:04;37.72;;;18.75;;
73331;SDS011;61560;33.718;73.040;2022-10-13T14:08:33;36.78;;;18.83;;
73331;SDS011;61560;33.718;73.040;2022-10-13T14:11:07;44.78;;;21.48;;
73331;SDS011;61560;33.718;73.040;2022-10-13T14:13:34;37.95;;;19.23;;
73331;SDS011;61560;33.718;73.040;2022-10-13T14:16:01;52.78;;;23.40;;
73331;SDS011;61560;33.718;73.040;2022-10-13T14:18:28;43.85;;;20.73;;
73331;SDS011;61560;33.718;73.040;2022-10-13T14:20:55;43.10;;;19.48;;
73331;SDS011;61560;33.718;73.040;2022-10-13T14:23:22;29.83;;;15.02;;
73331;SDS011;61560;33.718;73.040;2022-10-13T14:25:50;36.70;;;15.95;;
73331;SDS011;61560;33.718;73.040;2022-10-13T14:28:16;28.90;;;15.80;;
73331;SDS011;61560;33.718;73.040;2022-10-13T14:30:45;29.20;;;14.45;;
73331;SDS011;61560;33.718;73.040;2022-10-13T14:33:11;30.88;;;12.93;;
73331;SDS011;61560;33.718;73.040;2022-10-13T14:35:44;22.77;;;12.43;;
73331;SDS011;61560;33.718;73.040;2022-10-13T14:38:14;28.17;;;12.93;;
73331;SDS011;61560;33.718;73.040;2022-10-13T14:40:43;22.77;;;12.43;;
73331;SDS011;61560;33.718;73.040;2022-10-13T14:43:09;25.45;;;12.80;;
73331;SDS011;61560;33.718;73.040;2022-10-13T14:45:36;22.67;;;12.02;;
73331;SDS011;61560;33.718;73.040;2022-10-13T14:48:02;21.52;;;10.57;;
73331;SDS011;61560;33.718;73.040;2022-10-13T14:50:29;25.42;;;12.45;;
73331;SDS011;61560;33.718;73.040;2022-10-13T14:52:56;26.77;;;14.27;;
73331;SDS011;61560;33.718;73.040;2022-10-13T14:55:27;36.78;;;15.65;;
73331;SDS011;61560;33.718;73.040;2022-10-13T14:57:58;39.60;;;16.73;;
73331;SDS011;61560;33.718;73.040;2022-10-13T15:00:27;38.22;;;18.05;;
73331;SDS011;61560;33.718;73.040;2022-10-13T15:02:53;32.25;;;17.58;;
73331;SDS011;61560;33.718;73.040;2022-10-13T15:05:22;29.85;;;16.63;;
73331;SDS011;61560;33.718;73.040;2022-10-13T15:07:50;26.98;;;14.52;;
73331;SDS011;61560;33.718;73.040;2022-10-13T15:10:19;27.92;;;13.40;;
73331;SDS011;61560;33.718;73.040;2022-10-13T15:12:46;25.95;;;12.93;;
73331;SDS011;61560;33.718;73.040;2022-10-13T15:15:13;24.42;;;12.60;;
73331;SDS011;61560;33.718;73.040;2022-10-13T15:17:40;26.13;;;14.38;;
73331;SDS011;61560;33.718;73.040;2022-10-13T15:20:08;26.17;;;13.77;;
73331;SDS011;61560;33.718;73.040;2022-10-13T15:22:37;29.70;;;13.75;;
73331;SDS011;61560;33.718;73.040;2022-10-13T15:25:06;28.08;;;13.30;;
73331;SDS011;61560;33.718;73.040;2022-10-13T15:27:36;27.52;;;13.35;;
73331;SDS011;61560;33.718;73.040;2022-10-13T15:30:05;23.98;;;13.10;;
73331;SDS011;61560;33.718;73.040;2022-10-13T15:32:32;27.75;;;12.45;;
73331;SDS011;61560;33.718;73.040;2022-10-13T15:34:59;26.27;;;13.38;;
73331;SDS011;61560;33.718;73.040;2022-10-13T15:37:28;25.90;;;13.38;;
73331;SDS011;61560;33.718;73.040;2022-10-13T15:39:55;26.52;;;12.65;;
73331;SDS011;61560;33.718;73.040;2022-10-13T15:42:22;25.10;;;13.13;;
73331;SDS011;61560;33.718;73.040;2022-10-13T15:44:50;23.95;;;11.25;;
73331;SDS011;61560;33.718;73.040;2022-10-13T15:47:19;26.13;;;13.15;;
73331;SDS011;61560;33.718;73.040;2022-10-13T15:49:47;26.52;;;13.57;;
73331;SDS011;61560;33.718;73.040;2022-10-13T15:52:13;24.63;;;12.43;;
73331;SDS011;61560;33.718;73.040;2022-10-13T15:54:40;21.40;;;11.82;;
73331;SDS011;61560;33.718;73.040;2022-10-13T15:57:08;27.55;;;12.82;;
73331;SDS011;61560;33.718;73.040;2022-10-13T15:59:34;30.92;;;15.68;;
73331;SDS011;61560;33.718;73.040;2022-10-13T16:31:59;30.88;;;13.05;;
73331;SDS011;61560;33.718;73.040;2022-10-13T16:34:26;27.90;;;12.05;;
73331;SDS011;61560;33.718;73.040;2022-10-13T16:36:53;25.85;;;12.30;;
73331;SDS011;61560;33.718;73.040;2022-10-13T16:39:25;20.95;;;11.02;;
73331;SDS011;61560;33.718;73.040;2022-10-13T16:44:25;17.88;;;9.65;;
73331;SDS011;61560;33.718;73.040;2022-10-13T16:46:53;20.20;;;10.90;;
73331;SDS011;61560;33.718;73.040;2022-10-13T16:49:23;23.90;;;11.20;;
73331;SDS011;61560;33.718;73.040;2022-10-13T16:51:50;24.23;;;11.15;;
73331;SDS011;61560;33.718;73.040;2022-10-13T16:54:18;24.80;;;11.35;;
73331;SDS011;61560;33.718;73.040;2022-10-13T16:56:49;23.77;;;12.52;;
73331;SDS011;61560;33.718;73.040;2022-10-13T16:59:18;26.20;;;11.60;;
73331;SDS011;61560;33.718;73.040;2022-10-13T17:01:46;25.40;;;12.68;;
73331;SDS011;61560;33.718;73.040;2022-10-13T17:04:21;26.27;;;12.35;;
73331;SDS011;61560;33.718;73.040;2022-10-13T17:06:50;21.48;;;11.35;;
73331;SDS011;61560;33.718;73.040;2022-10-13T17:09:18;20.63;;;10.88;;
73331;SDS011;61560;33.718;73.040;2022-10-13T17:11:45;23.85;;;11.32;;
73331;SDS011;61560;33.718;73.040;2022-10-13T17:14:13;26.60;;;11.50;;
73331;SDS011;61560;33.718;73.040;2022-10-13T17:16:42;26.15;;;12.10;;
73331;SDS011;61560;33.718;73.040;2022-10-13T17:19:09;28.27;;;11.60;;
73331;SDS011;61560;33.718;73.040;2022-10-13T17:21:41;32.40;;;12.57;;
73331;SDS011;61560;33.718;73.040;2022-10-13T17:24:11;28.80;;;12.00;;
73331;SDS011;61560;33.718;73.040;2022-10-13T17:26:45;23.20;;;11.32;;
73331;SDS011;61560;33.718;73.040;2022-10-13T17:29:16;27.95;;;11.70;;
73331;SDS011;61560;33.718;73.040;2022-10-13T17:31:47;23.10;;;11.68;;
73331;SDS011;61560;33.718;73.040;2022-10-13T17:34:20;19.45;;;10.27;;
73331;SDS011;61560;33.718;73.040;2022-10-13T17:36:50;21.65;;;11.02;;
73331;SDS011;61560;33.718;73.040;2022-10-13T17:39:17;25.48;;;11.07;;
73331;SDS011;61560;33.718;73.040;2022-10-13T17:41:47;27.10;;;11.60;;
73331;SDS011;61560;33.718;73.040;2022-10-13T17:44:13;22.27;;;11.07;;
73331;SDS011;61560;33.718;73.040;2022-10-13T17:46:47;30.00;;;11.80;;
73331;SDS011;61560;33.718;73.040;2022-10-13T17:49:17;27.10;;;11.38;;
73331;SDS011;61560;33.718;73.040;2022-10-13T17:51:45;18.73;;;10.18;;
73331;SDS011;61560;33.718;73.040;2022-10-13T17:54:15;26.30;;;11.10;;
73331;SDS011;61560;33.718;73.040;2022-10-13T17:56:45;27.08;;;11.52;;
73331;SDS011;61560;33.718;73.040;2022-10-13T17:59:16;22.40;;;10.85;;
73331;SDS011;61560;33.718;73.040;2022-10-13T18:01:43;21.13;;;10.55;;
73331;SDS011;61560;33.718;73.040;2022-10-13T18:04:11;21.90;;;10.80;;
73331;SDS011;61560;33.718;73.040;2022-10-13T18:06:43;26.40;;;12.73;;
73331;SDS011;61560;33.718;73.040;2022-10-13T18:09:13;28.20;;;12.07;;
73331;SDS011;61560;33.718;73.040;2022-10-13T18:11:43;24.60;;;11.52;;